2019-06-17T09:22:12+02:00 GET /shop/termek/konig-vgadsub-eloszto-fekete-14cm-cmpswitch91/1556019 HTTP/1.1
2019-06-17T10:55:03+02:00 GET /shop/termek/logilink-utp-osszekoto-feher-75m-cq3081s/1242968 HTTP/1.1
2019-06-17T12:27:14+02:00 GET /shop/termek/bresser-pirsch-8x42-ketszemes-tavcso/1691645 HTTP/1.1
2019-06-17T12:47:17+02:00 GET /shop/termek/vtac-3w-e14-210lm-4500k-vtac4220/1557023 HTTP/1.1
2019-06-17T13:31:47+02:00 GET /shop/termek/aeg-dpb5650m-teleszkopos-paraelszivo-basic-garancia/1690535 HTTP/1.1
2019-06-17T14:00:11+02:00 GET /shop/termek/sencor-sll-50-fejlampa/1453035 HTTP/1.1
2019-06-17T14:05:27+02:00 GET /shop/termek/delock-vgadsub-+-jack-osszekoto-fekete-5m-dl84454/532765 HTTP/1.1
2019-06-17T14:05:27+02:00 GET /shop/termek/delock-vgadsub-+-jack-osszekoto-fekete-5m-84454/532765 HTTP/1.1
2019-06-17T14:12:46+02:00 GET /shop/termek/logilink-bluetooth-micro-usb-40-bt0037/1318238 HTTP/1.1
2019-06-17T14:41:30+02:00 GET /shop/termek/sencor-sws-260-meteorologiai-allomas/1510129 HTTP/1.1
2019-06-17T16:52:52+02:00 GET /shop/termek/gembird-mini-displayport-hdmi-atalakito-fekete-18m-ccmdphdmi6/1706644 HTTP/1.1
2019-06-17T17:06:37+02:00 GET /shop/termek/fiskars-ollo-altalanos-24-cm-functional-form-feher/1543497 HTTP/1.1
2019-06-17T18:26:52+02:00 GET /shop/termek/logilink-hdmi-osszekoto-fekete-2m-chb1102/208139 HTTP/1.1
2019-06-17T18:53:19+02:00 GET /shop/termek/anatomic-help-szilikon-sarokemelo-m/1509409 HTTP/1.1
2019-06-18T20:00:15+02:00 GET /shop/termek/curver-gorgos-szemetes-muanyag-110l-sargafekete/1569942 HTTP/1.1
2019-06-18T20:09:41+02:00 GET /shop/termek/gardena-874220-kerti-osszecsukhato-furesz-135p-basic-garancia/1716582 HTTP/1.1
2019-06-18T20:59:33+02:00 GET /shop/termek/curver-gorgos-szemetes-muanyag-110l-sargafekete/1569942 HTTP/1.1
2019-06-18T21:00:26+02:00 GET /shop/termek/philips-hr210000-turmixgep-basic-garancia/1709834 HTTP/1.1
2019-06-18T21:19:28+02:00 GET /shop/termek/philips-hp642300-satinelle-epilator-basic-garancia/1709635 HTTP/1.1
2019-06-18T21:25:37+02:00 GET /shop/termek/philips-hr210000-turmixgep-basic-garancia/1709834 HTTP/1.1
2019-06-18T22:28:25+02:00 GET /shop/termek/philips-mg110016-multigroom-1000es-sorozatu-rendkivul-pontos-szakallformazo-basic-garancia/1709901 HTTP/1.1
2019-06-18T23:18:42+02:00 GET /shop/termek/philips-hd482590-daily-collection-toaster-basic-garancia/1709038 HTTP/1.1
2019-06-19T00:36:29+02:00 GET /shop/termek/roline-parhuzamos-osszekoto-szurke-18m-1101351850/1572025 HTTP/1.1
2019-06-19T00:39:19+02:00 GET /shop/termek/gardena-871348-fejsze-900-b-basic-garancia/1602899 HTTP/1.1
2019-06-19T03:10:56+02:00 GET /shop/termek/levenhuk-blaze-50-pro-figyelotavcso/1697693 HTTP/1.1
2019-06-19T03:51:08+02:00 GET /shop/termek/levenhuk-tt35-asztallapi-haromlabu-allvany/1700898 HTTP/1.1
2019-06-19T04:03:27+02:00 GET /shop/termek/curver-gorgos-szemetes-muanyag-110l-sargafekete/1569942 HTTP/1.1
2019-06-19T05:29:36+02:00 GET /shop/termek/meade-polaris-114mm-eq-reflektor-teleszkop/1692071 HTTP/1.1
2019-06-19T05:45:34+02:00 GET /shop/termek/curver-gorgos-szemetes-muanyag-110l-sargafekete/1569942 HTTP/1.1
2019-06-19T10:43:05+02:00 GET /shop/termek/levenhuk-700m-monokularis-mikroszkop/1691626 HTTP/1.1
2019-06-19T10:43:16+02:00 GET /shop/termek/curver-gorgos-szemetes-muanyag-110l-sargafekete/1569942 HTTP/1.1
2019-06-19T11:26:51+02:00 GET /shop/termek/beurer-68117-lb-37-levego-parasito-toffee/1674960 HTTP/1.1
2019-06-19T11:29:53+02:00 GET /shop/termek/logilink-utp-osszekoto-feher-10m-cq3091s/1143282 HTTP/1.1
2019-06-19T11:31:07+02:00 GET /shop/termek/g21-stone-cube-viragcserep-30x30x285cm-sotetszurke/1570180 HTTP/1.1
2019-06-19T11:33:06+02:00 GET /shop/termek/bresser-topas-10x25-ketszemes-tavcso-zold/1691846 HTTP/1.1
2019-06-19T15:14:32+02:00 GET /shop/termek/logilink-utp-osszekoto-feher-30m-cq2121s/534001 HTTP/1.1
2019-06-19T15:19:39+02:00 GET /shop/termek/logilink-utp-osszekoto-kek-3m-cq2066s/1234342 HTTP/1.1
2019-06-20T10:53:28+02:00 GET /shop/termek/levenhuk-skyline-90x900-eq/1694568 HTTP/1.1
2019-06-20T11:17:07+02:00 GET /shop/termek/levenhuk-sherman-pro-65x32-ketszemes-tavcso/1692458 HTTP/1.1
2019-06-20T11:33:45+02:00 GET /shop/termek/bresser-biolux-nv-20x1280x-mikroszkop/1698497 HTTP/1.1
2019-06-20T11:51:31+02:00 GET /shop/termek/philips-gc214240-easyspeed-plus-gozolos-vasalo-basic-garancia/1709509 HTTP/1.1
2019-06-20T10:53:28+02:00 GET /shop/termek/levenhuk-skyline-90x900-eq/1694568 HTTP/1.1
2019-06-20T11:17:07+02:00 GET /shop/termek/levenhuk-sherman-pro-65x32-ketszemes-tavcso/1692458 HTTP/1.1
2019-06-20T11:33:45+02:00 GET /shop/termek/bresser-biolux-nv-20x1280x-mikroszkop/1698497 HTTP/1.1
2019-06-20T11:51:31+02:00 GET /shop/termek/philips-gc214240-easyspeed-plus-gozolos-vasalo-basic-garancia/1709509 HTTP/1.1
2019-06-20T21:35:59+02:00 GET /shop/termek/nintendo-3ds-ac-adapter/1428353 HTTP/1.1
2019-06-20T21:36:00+02:00 GET /shop/termek/nintendo-3ds-halozati-adapter/1428353 HTTP/1.1
2019-06-21T09:44:53+02:00 GET /shop/termek/levenhuk-bruno-plus-20x80-ketszemes-tavcso/1695441 HTTP/1.1
2019-06-21T09:50:44+02:00 GET /shop/termek/levenhuk-blaze-60-base-figyelotavcso/1691959 HTTP/1.1
2019-06-21T10:02:06+02:00 GET /shop/termek/bresser-galaxia-114900/1691659 HTTP/1.1
2019-06-21T09:44:53+02:00 GET /shop/termek/levenhuk-bruno-plus-20x80-ketszemes-tavcso/1695441 HTTP/1.1
2019-06-21T09:50:44+02:00 GET /shop/termek/levenhuk-blaze-60-base-figyelotavcso/1691959 HTTP/1.1
2019-06-21T10:02:06+02:00 GET /shop/termek/bresser-galaxia-114900/1691659 HTTP/1.1
2019-06-21T18:50:00+02:00 GET /shop/termek/fieldmann-fdv-200851e-elektromos-utvefuro/1541544 HTTP/1.1
2019-06-21T19:09:32+02:00 GET /shop/termek/curver-pedalos-szemetes-femhatasu-5-l/1083270 HTTP/1.1
2019-06-21T19:47:51+02:00 GET /shop/termek/curver-pedalos-szemetes-femhatasu-5-l/1083270 HTTP/1.1
2019-06-22T07:44:51+02:00 GET /shop/termek/whitenergy-dell-latitude-d620-04805/299988 HTTP/1.1
2019-06-22T08:46:45+02:00 GET /shop/termek/meade-starnavigator-ng-90-mmes-mak-teleszkop/1692099 HTTP/1.1
2019-06-24T11:17:16+02:00 GET /shop/termek/curver-pedalos-szemetes-femhatasu-5-l/1083270 HTTP/1.1
2019-06-24T11:52:43+02:00 GET /shop/termek/philips-hr776-konyhai-robotgep/769800 HTTP/1.1
2019-06-24T15:29:32+02:00 GET /shop/termek/curver-gorgos-szemetes-muanyag-110l-sargafekete/1569942 HTTP/1.1
2019-06-24T16:50:05+02:00 GET /shop/termek/bosch-mum4427-konyhai-robotgep/1166693 HTTP/1.1
2019-06-24T16:56:18+02:00 GET /shop/termek/fieldmann-fzk2005e-elektromos-kapalogep/1531016 HTTP/1.1
2019-06-24T17:16:45+02:00 GET /shop/termek/bosch-mum4427-konyhai-robotgep/1166693 HTTP/1.1
2019-06-24T19:35:43+02:00 GET /shop/termek/bosch-mum4427-konyhai-robotgep/1166693 HTTP/1.1
2019-06-24T21:00:57+02:00 GET /shop/termek/curver-pedalos-szemetes-femhatasu-5-l/1083270 HTTP/1.1
2019-06-24T21:05:40+02:00 GET /shop/termek/electrolux-ems21400s-mikrohullamu-suto/1166698 HTTP/1.1
2019-06-24T22:24:52+02:00 GET /shop/termek/bosch-tda2610-vasalo/1067997 HTTP/1.1
2019-06-25T06:55:55+02:00 GET /shop/termek/neff-t46bt43n0-n-70-indukcios-fozolap-twist-pad-vezerlessel-60-cm/1730688 HTTP/1.1
2019-06-25T08:19:09+02:00 GET /shop/termek/levenhuk-labzz-d1/1691519 HTTP/1.1
2019-06-25T08:20:52+02:00 GET /shop/termek/levenhuk-d70l-digitalis-biologiai-mikroszkop/1691979 HTTP/1.1
2019-06-25T08:33:03+02:00 GET /shop/termek/bresser-classic-70350-az/1691654 HTTP/1.1
2019-06-25T12:22:20+02:00 GET /shop/termek/curver-gorgos-szemetes-muanyag-110l-sargafekete/1569942 HTTP/1.1
2019-06-25T13:54:57+02:00 GET /shop/termek/electrolux-ems21400s-mikrohullamu-suto/1166698 HTTP/1.1
2019-06-25T14:18:19+02:00 GET /shop/termek/electrolux-ems21400s-mikrohullamu-suto/1166698 HTTP/1.1
2019-06-25T14:18:19+02:00 GET /shop/termek/electrolux-ems21400s-mikrohullamu-suto/1166698 HTTP/1.1
2019-06-25T16:27:58+02:00 GET /shop/termek/bosch-bgl8zoo-zooo-proanimal-porzsakos-porszivo-c-energiaosztaly-hepa-h13-szuro-piros/1607661 HTTP/1.1
2019-06-25T16:32:27+02:00 GET /shop/termek/electrolux-ems21400s-mikrohullamu-suto/1166698 HTTP/1.1
2019-06-25T18:22:28+02:00 GET /shop/termek/curver-pedalos-szemetes-femhatasu-5-l/1083270 HTTP/1.1
2019-06-25T18:44:36+02:00 GET /shop/termek/philips-hp866100-essentialcare-levegos-hajformazo-basic-garancia/1708852 HTTP/1.1
2019-06-26T01:12:52+02:00 GET /shop/termek/curver-gorgos-szemetes-muanyag-110l-sargafekete/1569942 HTTP/1.1
2019-06-26T01:14:41+02:00 GET /shop/termek/philips-fc882201-smartpro-active-robotporszivo/1689367 HTTP/1.1
2019-06-26T04:29:23+02:00 GET /shop/termek/philips-brl14000-satinshave-advanced-elektromos-borotva/1460585 HTTP/1.1
2019-06-26T07:05:08+02:00 GET /shop/termek/bosch-hba534eb0-serie-4-beepitheto-suto-fekete/1644145 HTTP/1.1
2019-06-26T09:12:36+02:00 GET /shop/termek/levenhuk-broadway-325n-szinhazi-latcso-ledlampaval-ellatott-arany-szinu-lornyon/1692082 HTTP/1.1
2019-06-26T09:19:12+02:00 GET /shop/termek/levenhuk-zeno-vizor-hr4-fejre-rogzitheto-toltheto-nagyito/1711634 HTTP/1.1
2019-06-26T09:24:34+02:00 GET /shop/termek/bresser-73274-peneszedesriaszto-higrometer-fekete/1714656 HTTP/1.1
2019-06-26T11:19:05+02:00 GET /shop/termek/bosch-mfw3630a-compactpower-husdaralo/1505118 HTTP/1.1
2019-06-26T23:01:34+02:00 GET /shop/termek/nintendo-3ds-ac-adapter/1428353 HTTP/1.1
2019-06-26T23:01:34+02:00 GET /shop/termek/nintendo-3ds-halozati-adapter/1428353 HTTP/1.1
2019-06-27T06:08:12+02:00 GET /shop/termek/asmodee-the-mind-erezz-ra-tarsasjatek/1751559 HTTP/1.1
2019-06-27T08:57:42+02:00 GET /shop/termek/bosch-bbh52550-lithiumpower-252v-vezetek-nelkuli-kezi-porszivo/1466716 HTTP/1.1
2019-06-27T09:05:27+02:00 GET /shop/termek/levenhuk-sherman-plus-12x50-ketszemes-tavcso/1695455 HTTP/1.1
2019-06-27T11:17:48+02:00 GET /shop/termek/bosch-hba573es0-beepitheto-suto-nemesacel-ezust/1639719 HTTP/1.1
2019-06-27T13:56:29+02:00 GET /shop/termek/samsung-t830-galaxy-tab-s4-105-64gb-szurke/1671557 HTTP/1.1
2019-06-27T14:39:15+02:00 GET /shop/termek/philips-mg573015-multigroom-series-5000-11-az-1ben-arcra-hajra-es-testre/1689214 HTTP/1.1
2019-06-27T17:32:38+02:00 GET /shop/termek/philips-s903112-shaver-series-9000-nedves-es-szaraz-elektromos-borotva/1686559 HTTP/1.1
2019-06-27T19:32:39+02:00 GET /shop/termek/bosch-smi46ks00e-serie-4-silence-plus-mosogatogep-60-cm-integralhato-keszulek-nemesacel/1575179 HTTP/1.1
2019-06-27T20:24:19+02:00 GET /shop/termek/bosch-hba573eb0-serie-4-beepitheto-suto-szurke/1639718 HTTP/1.1
2019-06-27T20:49:32+02:00 GET /shop/termek/bosch-smv46kx00e-serie-4-silence-plus-mosogatogep-60-cm-teljesen-integralhato-keszulek/1580030 HTTP/1.1
2019-06-27T22:43:31+02:00 GET /shop/termek/bosch-pif651fc1e-indukcios-fozolap/1600432 HTTP/1.1
2019-06-28T08:03:02+02:00 GET /shop/termek/fieldmann-fzn-2001-e-elektromos-sovenyvago/1547865 HTTP/1.1
2019-06-28T08:03:03+02:00 GET /shop/termek/fieldmann-fzn-2001e-elektromos-sovenyvago/1547865 HTTP/1.1
2019-06-28T09:02:25+02:00 GET /shop/termek/levenhuk-labzz-m101-mikroszkop-lila/1691516 HTTP/1.1
2019-06-28T09:27:38+02:00 GET /shop/termek/philips-s152004-elektromos-borotva/1453763 HTTP/1.1
2019-06-26T23:01:34+02:00 GET /shop/termek/nintendo-3ds-ac-adapter/1428353 HTTP/1.1
2019-06-26T23:01:34+02:00 GET /shop/termek/nintendo-3ds-halozati-adapter/1428353 HTTP/1.1
2019-06-27T06:08:12+02:00 GET /shop/termek/asmodee-the-mind-erezz-ra-tarsasjatek/1751559 HTTP/1.1
2019-06-27T08:57:42+02:00 GET /shop/termek/bosch-bbh52550-lithiumpower-252v-vezetek-nelkuli-kezi-porszivo/1466716 HTTP/1.1
2019-06-27T09:05:27+02:00 GET /shop/termek/levenhuk-sherman-plus-12x50-ketszemes-tavcso/1695455 HTTP/1.1
2019-06-27T11:17:48+02:00 GET /shop/termek/bosch-hba573es0-beepitheto-suto-nemesacel-ezust/1639719 HTTP/1.1
2019-06-27T13:56:29+02:00 GET /shop/termek/samsung-t830-galaxy-tab-s4-105-64gb-szurke/1671557 HTTP/1.1
2019-06-27T14:39:15+02:00 GET /shop/termek/philips-mg573015-multigroom-series-5000-11-az-1ben-arcra-hajra-es-testre/1689214 HTTP/1.1
2019-06-27T17:32:38+02:00 GET /shop/termek/philips-s903112-shaver-series-9000-nedves-es-szaraz-elektromos-borotva/1686559 HTTP/1.1
2019-06-27T19:32:39+02:00 GET /shop/termek/bosch-smi46ks00e-serie-4-silence-plus-mosogatogep-60-cm-integralhato-keszulek-nemesacel/1575179 HTTP/1.1
2019-06-27T20:24:19+02:00 GET /shop/termek/bosch-hba573eb0-serie-4-beepitheto-suto-szurke/1639718 HTTP/1.1
2019-06-27T20:49:32+02:00 GET /shop/termek/bosch-smv46kx00e-serie-4-silence-plus-mosogatogep-60-cm-teljesen-integralhato-keszulek/1580030 HTTP/1.1
2019-06-27T22:43:31+02:00 GET /shop/termek/bosch-pif651fc1e-indukcios-fozolap/1600432 HTTP/1.1
2019-06-28T08:03:02+02:00 GET /shop/termek/fieldmann-fzn-2001-e-elektromos-sovenyvago/1547865 HTTP/1.1
2019-06-28T08:03:03+02:00 GET /shop/termek/fieldmann-fzn-2001e-elektromos-sovenyvago/1547865 HTTP/1.1
2019-06-28T09:02:25+02:00 GET /shop/termek/levenhuk-labzz-m101-mikroszkop-lila/1691516 HTTP/1.1
2019-06-28T09:27:38+02:00 GET /shop/termek/philips-s152004-elektromos-borotva/1453763 HTTP/1.1
2019-06-28T10:18:00+02:00 GET /shop/termek/philips-hr210000-turmixgep-basic-garancia/1709834 HTTP/1.1
2019-06-28T14:04:51+02:00 GET /shop/termek/philips-nt115010-orr-es-fulszorzetvago-basic-garancia/1709297 HTTP/1.1
2019-06-28T14:43:33+02:00 GET /shop/termek/philips-hp639300-touchup-pen-trimmer-basic-garancia/1661256 HTTP/1.1
2019-06-28T16:36:08+02:00 GET /shop/termek/electrolux-edb6130-vasalo/1490768 HTTP/1.1
2019-06-28T16:48:01+02:00 GET /shop/termek/philips-hx891101-sonicare-healthywhite+-szonikus-elektromos-fogkefe/1456844 HTTP/1.1
2019-06-28T23:32:03+02:00 GET /shop/termek/philips-hx907607-sonicare-c3-premium-plaque-defence-normal-fogkefe-csomag/1699734 HTTP/1.1
2019-06-29T01:27:26+02:00 GET /shop/termek/philips-hr776200-viva-collection-konyhai-robotgep/1321110 HTTP/1.1
2019-06-29T04:05:08+02:00 GET /shop/termek/philips-ep531410-series-5000-automata-eszpresszogepek/1689162 HTTP/1.1
2019-06-29T12:33:18+02:00 GET /shop/termek/bosch-bbh52550-lithiumpower-252v-vezetek-nelkuli-kezi-porszivo/1466716 HTTP/1.1
2019-06-29T14:57:27+02:00 GET /shop/termek/bosch-mmr08r2-aprito/1317275 HTTP/1.1
2019-06-29T16:51:24+02:00 GET /shop/termek/bosch-mfq3555-talas-mixer/1412836 HTTP/1.1
2019-06-30T01:15:46+02:00 GET /shop/termek/whitenergy-dell-vostro-3400-3500-3700-08196/300008 HTTP/1.1
2019-06-30T02:55:41+02:00 GET /shop/termek/bosch-wan24061by-serie-4-eloltoltos-mosogep/1742810 HTTP/1.1
2019-06-30T03:25:03+02:00 GET /shop/termek/bosch-bgl3hyg-prohygienic-padloporszivo/1505156 HTTP/1.1